Terminal Aerodrome Forecast
Issued by NWS

Home | Current Version | Previous Version | Text Only | Print | Product List | Glossary On
Versions: 1 2 3 4 5 6 7 8 9 10 11 12 13 14 15 16 17 18 19 20 21 22 23 24 25 26
000
FTUS41 KOKX 030536
TAFHPN
TAF
KHPN 030536Z 0306/0406 VRB03KT 6SM BR SKC
     FM030900 VRB03KT 4SM BR SKC
      TEMPO 0310/0313 1 1/2SM BR
     FM031300 VRB04KT P6SM SCT250
      AMD NOT SKED=

USA.gov is the U.S. government's official web portal to all federal, state and local government web resources and services.